Ships in port

Last updated: 16-12-2019 03:48

Ship name Call sign IMO Agent Date Time Berth Arrived From Purpose of call Cargo Loaded in/for Homeport ETD Date ETD Time GT Deadweight Width (BR) DR arr. Length (LOA)
MARMARA MARINER 9HTB6 9175183 Schultz Shipping A/S 16-12-2019 03:05 813 Göteborg Bunker another vessel Gas oil VALLETTA 17-12-2019 22:00 4606 6620 16,8 4,9 129,3
HAVILA FANØ 3YBL 9538531 Total E&P Danmark A/S 15-12-2019 23:55 504 DK OFFSHORE INSTALLATIONS Discharge/load Offshore cargo FOSNAVÅG 16-12-2019 21:00 3062 4000 17,6 5,9 80,4
SAMSKIP CRYSTAL C6VN5 9143374 Blue Water Shipping A/S 15-12-2019 22:05 113 St Petersburg (Ex Leningrad) Load Potatoes NASSAU 20-12-2019 18:11 3817 4000 15,7 4,6 91,5
ARK DANIA OZHK2 9609964 DFDS A/S 15-12-2019 15:10 814 Immingham Discharge/load Trailers Esbjerg 16-12-2019 19:22 33313 24485 33,2 6,9 195,2
EURUS EXPRESS OXGO2 9122978 Total E&P Danmark A/S 15-12-2019 08:15 507 DK OFFSHORE INSTALLATIONS Discharge/load Offshore cargo FREDERICIA 16-12-2019 18:22 3171 4170 19,7 4,9 83,7
HAVILA HEROY LCCC 9455832 Total E&P Danmark A/S 15-12-2019 04:25 505 DK OFFSHORE INSTALLATIONS Discharge/load Offshore cargo FOSNAVÅG 15-12-2019 18:00 3062 4100 17,6 4,7 80,4
GLAREA OXQK 7041170 NCC Industry A/S 15-12-2019 01:40 717 DK AGGREGATES EXTRACTION AREAS Discharge Gravel ESBJERG 16-12-2019 22:22 1607 2266 14,1 5,5 82,0
VOS STONE PBMW 9730517 Blue Water Shipping A/S 14-12-2019 18:20 105 OTHER DENMARK Shelter Breskens 16-12-2019 04:00 4965 2348 18,4 5,9 80,0
ISLAND CENTURION 3YHG 9579470 Blue Water Shipping A/S 14-12-2019 16:35 104 DK OFFSHORE INSTALLATIONS Load Drill chemicals AALESUND 18-12-2019 15:00 6397 4788 20,0 6,4 93,0
PRESTO 9782132 Niels Winther Maritime ApS 14-12-2019 15:00 2 DK OFFSHORE INSTALLATIONS Passenger call Wismar 16-12-2019 12:22 225 30 9,0 1,5 27,5
MO 2 2IOR9 235111522 Blue Water Shipping A/S 14-12-2019 14:45 2 DK OFFSHORE INSTALLATIONS Passenger call Passengers Scarborough 18-12-2019 07:22 71 0 9,5 2,1 25,0
ESVAGT FARADAY OWGH2 9703473 Niels Winther Maritime ApS 14-12-2019 11:30 710 DK OFFSHORE INSTALLATIONS Crew change/Provion/Bunkers Esbjerg 16-12-2019 08:00 5039 3200 17,9 6,2 83,7
FOB SWATH 8 OXET2 9858278 Offshore Windservice A/S 14-12-2019 11:15 25 NL OFFSHORE INSTALLATIONS Crew change/Provion/Bunkers THYBORØN 18-12-2019 12:22 360 0 11,5 2,0 32,5
HO BUGT (E 4) OU7149 219001695 Kutter Ho Bugt E 4 14-12-2019 11:00 12 OTHER DENMARK Discharge Shrimps ESBJERG 16-12-2019 19:22 19 0 5,5 2,5 16,0
BOLDER OUYO2 9656993 Northern Offshore Services A/S 14-12-2019 10:55 3 DK OFFSHORE INSTALLATIONS Passenger call Passengers Fredericia 15-12-2019 07:22 118 55 7,0 2,1 20,9
ESVAGT CORNELIA OWTL2 9678434 Esvagt A/S 14-12-2019 10:05 304 DK OFFSHORE INSTALLATIONS Await orders Esbjerg 31-12-2019 22:22 963 621 11,5 4,4 45,8
ESVAGT OBSERVER OYQR2 9198032 Esvagt A/S 14-12-2019 09:20 502 DK OFFSHORE INSTALLATIONS Repair ESBJERG 21-12-2019 12:00 1863 1447 14,6 4,5 56,6
OLYMPIC COMMANDER LISU3 9340609 Niels Winther & CO Skibsekspedition ApS 14-12-2019 02:10 305 Lindø Havn Temporary laid up Ålesund 31-01-2020 22:22 4787 4800 19,7 6,7 92,9
ESVAGT BETA OUJM2 8817746 Esvagt A/S 13-12-2019 22:00 302 DK OFFSHORE INSTALLATIONS Crew change/Provion/Bunkers ESBJERG 22-12-2019 22:22 2360 1157 14,6 5,3 76,6
FOB SWATH 7 OWSJ2 9772785 Offshore Windservice A/S 13-12-2019 14:20 27 DK OFFSHORE INSTALLATIONS Passenger call Passengers Hvide Sande 16-12-2019 20:22 331 0 11,0 2,1 33,2
ESVAGT CAPELLA OVQK2 9302047 Esvagt A/S 13-12-2019 10:10 303 DK OFFSHORE INSTALLATIONS Crew change/Provion/Bunkers ESBJERG 18-12-2019 10:22 931 400 11,5 4,6 44,0
ESVAGT CARPATHIA OXRZ2 9362114 Esvagt A/S 13-12-2019 07:40 301 DK OFFSHORE INSTALLATIONS Await orders ESBJERG 08-01-2020 22:22 963 641 11,5 4,5 46,1
MAERSK TRACKER OYGP2 9388637 Total E&P Danmark A/S 13-12-2019 07:10 207 DK OFFSHORE INSTALLATIONS Shelter ESBJERG 20-12-2019 22:22 4678 3516 20,0 7,2 73,2
RUNE EGHOLM (E 426) OYCG 220242000 Fiskeriselskabet Rune Egholm E 426 13-12-2019 00:30 12 OTHER DENMARK Discharge Shrimps ESBJERG 16-12-2019 10:22 67 0 5,9 2,5 18,0
SOFIA KAUL (E 41) OVPT 219009041 KAUL ApS 12-12-2019 22:45 12 OTHER DENMARK Discharge Shrimps Esbjerg 16-12-2019 12:22 79 0 5,8 2,5 20,0
IDA SARA (E 710) OYHO 219011867 Fiskeriselskabet Ida Sara E 710 ApS 12-12-2019 21:45 12 OTHER DENMARK Discharge Shrimps ESBJERG 16-12-2019 12:22 62 0 5,8 2,5 17,2
HBC ACHIEVER OWMH2 9647978 Blue Water Shipping A/S 12-12-2019 20:05 310 DK OFFSHORE INSTALLATIONS Crew change/Provion/Bunkers GILLELEJE 22-12-2019 22:22 494 0 11,2 3,2 36,0
SIF R PIVA 7424358 Rohde Nielsen A/S 12-12-2019 02:30 86 Thyborøn Repair ZEIST 16-12-2019 14:00 1693 2700 13,8 2,7 80,0
ELISABETH M OXRF2 4400208 KEM-Offshore ApS 10-12-2019 11:30 21 DK OFFSHORE INSTALLATIONS Passenger call Passengers ESBJERG 20-12-2019 07:22 66 0 4,9 2,1 20,8
KEM 1 OWQN2 9750866 KEM-Offshore ApS 07-12-2019 10:45 4 DK OFFSHORE INSTALLATIONS Passenger call Passengers Esbjerg 20-12-2019 18:22 127 18 7,5 2,1 26,5
REYKJANES OVSI2 7392311 Regnskabsbureauet ApS 07-12-2019 10:25 59 DK OFFSHORE INSTALLATIONS Crew change/Provion/Bunkers ESBJERG 20-12-2019 16:00 442 427 8,3 4,2 39,8
SKANDI AFRICA C6BU7 9687459 GAC Denmark A/S 06-12-2019 22:55 117 Other ports Temporary laid up NASSAU 19-01-2020 18:22 22696 0 32,0 8,2 160,9
MASTER EXPRESS OYFW2 9255957 A1 Partner A/S 06-12-2019 08:00 402 Zeebrugge Temporary laid up Fredericia 31-01-2020 12:22 3100 0 19,1 4,3 83,2
BLUE ORCA WDG8787 9670341 Jutlandia Terminal A/S 05-12-2019 13:20 509 Esbjerg Load Galliano, LA 20-12-2019 22:22 7115 5065 18,3 5,8 94,8
ARCTIC HUNTER OUWK2 7719832 O.S. Energy GmbH 05-12-2019 08:30 52 DK OFFSHORE INSTALLATIONS Crew change/Provion/Bunkers Esbjerg 20-12-2019 16:22 453 415 9,0 3,8 40,6
MAERSK INVOLVER MCAG6 9753923 GAC Denmark A/S 05-12-2019 08:30 201 DK OFFSHORE INSTALLATIONS Demobilisation DOUGLAS 23-12-2019 18:22 14908 9746 27,0 7,4 137,6
TOSTE R OVPK 9042087 Rohde Nielsen A/S 04-12-2019 19:45 84 Other ports, Portugal Dredging ESBJERG 24-12-2019 12:22 556 632 10,5 2,5 45,7
ILE DE BATZ FOSU 9247041 Niels Winther Maritime ApS 02-12-2019 09:45 801 OTHER DENMARK Discharge/load Marseile 18-12-2019 08:00 13978 10000 23,4 7,5 136,4
ISLAND PATRIOT LMWS 9325738 Copco A/S 02-12-2019 08:25 603 DK OFFSHORE INSTALLATIONS Load Chemicals ÅLESUND 20-12-2019 00:22 5800 4843 19,2 5,6 86,2
FOB SWATH 4 OUWZ2 9672947 Offshore Windservice A/S 02-12-2019 06:00 27 DK OFFSHORE INSTALLATIONS Passenger call Passengers Fredericia 20-12-2019 07:22 243 0 10,6 2,1 24,8
WIND SUPPLIER OWBZ2 9566148 Ørsted Horns Rev 2 A/S 01-12-2019 17:20 24 DK OFFSHORE INSTALLATIONS ESBJERG 20-12-2019 07:22 170 0 6,9 0,0 32,2
ORKAMA M OZBO2 219010982 KEM-Offshore ApS 01-12-2019 16:15 21 DK OFFSHORE INSTALLATIONS ESBJERG 20-12-2019 07:22 74 0 4,9 0,0 22,4
SVITZER HELIOS OWLX2 7321659 EM. Z. Svitzer A/S 01-12-2019 00:05 307 Esbjerg Towing ESBJERG 31-12-2019 23:55 304 650 9,8 4,6 32,9
CICALA MFBZ4 8891443 M/V ST. CICALA / John Cefferty 01-12-2019 00:05 88 Esbjerg Temporary laid up MANCHESTER 31-12-2019 23:55 270 0 8,5 2,0 30,7
SONDERHO OYVH 8946779 Molslinjen A/S 01-12-2019 00:05 209 Nordby Havn, Fanø Passenger call Passengers ESBJERG 31-12-2019 23:55 93 30 6,0 1,5 25,0
FØNIKS SUPPORTER OUBJ2 8661020 Bunker One A/S 01-12-2019 00:05 7 Esbjerg Bunker another vessel københavn 31-12-2019 23:55 226 0 9,0 1,5 25,2
KIRSTEN GULLEV OU5826 219017273 Nordic Marine Oil A/S 01-12-2019 00:05 14 OTHER DENMARK Bunker another vessel ESBJERG 31-12-2019 23:55 21 70 4,3 1,5 14,4
STATHAV 9 FTJ1312 219017543 Nordic Marine Oil A/S 01-12-2019 00:05 14 Esbjerg Bunker another vessel KØBENHAVN 31-12-2019 23:55 19 0 4,3 1,5 12,4
SOUNDLINK OXFT2 219001789 B B Towing og Diving A/S 01-12-2019 00:05 65 Esbjerg Towing Esbjerg 31-12-2019 23:55 30 0 4,2 2,3 13,0
STATHAV 22 OWGA2 9096399 Nordic Marine Oil A/S 01-12-2019 00:05 14 Esbjerg Bunker another vessel Skagen 31-12-2019 23:55 131 0 6,5 2,5 27,4
SIGYN OZHB2 9114361 EM. Z. Svitzer A/S 01-12-2019 00:05 306 OTHER DENMARK Towing Kalundborg 31-12-2019 23:55 485 311 10,8 5,0 33,8
FENJA OYIQ 9189378 Molslinjen A/S 01-12-2019 00:05 209 Nordby Havn, Fanø Passenger call Passengers - cars ESBJERG 31-12-2019 23:55 751 230 13,8 2,5 49,9
MENJA OYIU 9189380 Molslinjen A/S 01-12-2019 00:05 300 Nordby Havn, Fanø Passenger call Passengers - cars ESBJERG 31-12-2019 23:55 751 230 13,8 2,5 49,9
KAREN M OWFL2 8228830 KEM-Offshore ApS 28-11-2019 21:45 21 OTHER DENMARK Crew change/Provion/Bunkers Esbjerg 20-12-2019 16:22 108 0 6,0 2,1 26,9
SEAJACKS SCYLLA 3FSA3 9698939 Niels Winther Maritime ApS 27-11-2019 12:30 76 Odense Discharge/load Panama 20-12-2019 22:22 23641 18907 50,0 8,0 139,0
SØLØVEN OXQL2 8862569 O.S. Energy GmbH 26-11-2019 23:10 83 OFFSHORE, NORTH SEA Crew change/Provion/Bunkers ESBJERG 20-12-2019 22:22 390 0 8,5 4,7 46,0
WILHELMINA (E 78) OUSS 8718811 Fiskeriselskabet Cardium A/S 26-11-2019 15:00 64 OTHER DENMARK Discharge Bivalves (muslinger) ESBJERG 20-12-2019 10:22 283 316 10,0 2,0 40,2
SKOVEN OWOY2 8621408 Foga ApS 25-11-2019 13:45 51 DK OFFSHORE INSTALLATIONS Crew change/Provion/Bunkers HVIDE SANDE 20-12-2019 18:00 344 200 8,4 4,0 41,9
THOR EXPRESS OXLM2 9104017 A1 Partner A/S 24-11-2019 10:15 52 Cuxhaven Temporary laid up Fredericia 31-12-2019 23:55 3147 4115 19,0 4,5 82,5
BIGORANGE XVIII C6LD3 8311314 Blue Water Shipping A/S 23-11-2019 10:55 206 DK OFFSHORE INSTALLATIONS Load Drill chemicals NASSAU 20-12-2019 22:22 3719 3424 18,0 5,3 76,1
NOTUS EXPRESS OXDR2 9186601 A1 Partner A/S 21-11-2019 09:55 401 Thyborøn Temporary laid up FREDERICIA 31-12-2019 22:22 3917 4308 19,7 5,1 83,7
OCEAN ZEPHYR OXCV2 9000625 A1-Offshore ApS 07-11-2019 14:45 52 Murmansk Temporary laid up FREDERICIA 31-12-2019 22:22 3000 3476 17,5 4,7 87,1
ESVAGT BRAVO OZJB2 5408221 Esvagt A/S 04-11-2019 14:55 304 DK OFFSHORE INSTALLATIONS Temporary laid up ESBJERG 20-12-2019 16:22 172 163 6,6 3,3 30,9
DJURS WIND OZAD2 9657569 Ørsted Horns Rev 2 A/S 31-10-2019 18:30 24 DK OFFSHORE INSTALLATIONS Passenger call Passengers GRENÅ 20-12-2019 07:22 117 22 5,9 2,1 25,1
MHO ESBJERG OXIG2 9852511 MH-O & Co A/S 31-10-2019 05:15 26 Eemshaven (NLEEM) Await orders JUELSMINDE 20-12-2019 22:22 365 0 10,3 1,6 38,6
HEIMDAL R PCUO 9127320 Rohde Nielsen A/S 22-10-2019 18:10 718 DK OFFSHORE INSTALLATIONS Dredging Split stones dordrecht 20-12-2019 22:22 2898 3974 18,7 4,0 84,0
OLYMPIC ARTEMIS LAFV8 9726217 Niels Winther Maritime ApS 19-10-2019 15:15 305 Rotterdam Temporary laid up FOSNAVAAG 31-12-2019 12:00 4744 3100 19,2 5,7 87,8
CONNECTOR EXPRESS OYOJ2 9244568 NorSea Group Denmark A/S 16-10-2019 07:45 501 DK OFFSHORE INSTALLATIONS Discharge/load Offshore cargo FREDERICIA 31-12-2019 16:22 4030 4505 19,0 5,2 90,2
WEM 2 MCPB7 9831969 Niels Winther Maritime ApS 13-10-2019 10:50 3 Eemshaven (NLEEM) Passenger call Passengers SUNDERLAND 31-12-2019 07:22 107 0 8,0 2,1 27,4
BIANCA DFOK 8716930 Fiskbúðin Sæbjörg ehf. 02-10-2019 23:55 85 Thyborøn Repair Cuxhaven 20-12-2019 22:22 455 183 8,5 3,8 40,2
SUSANNE DETY 8303276 Fiskbúðin Sæbjörg ehf. 21-09-2019 07:10 85 Thyborøn Repair CUXHAVEN 20-12-2019 22:22 492 200 9,6 5,5 35,1
DEEP ENERGY C6YL2 9481154 GAC Denmark A/S 04-09-2019 19:50 110 NO Offshore installations Await orders Nassau 20-12-2019 19:22 25378 0 31,0 8,2 194,5
MARGRETHE M OVOR2 9999999 KEM-Offshore ApS 13-08-2019 12:40 21 DK OFFSHORE INSTALLATIONS Passenger call Passengers ESBJERG 31-12-2019 15:22 49 0 5,0 2,0 19,8
DANMARK OXDK 5086279 Esbjerg Shipyard 25-06-2019 08:55 85 Rønne Repair Copenhagen 07-03-2020 22:22 737 0 10,1 4,9 65,0
SEA COMFORT OUZK2 9674282 Selskabet af 29 oktober A/S under konkurs 21-06-2019 11:00 5 Borkum I. Crew change/Provion/Bunkers Grenaa 31-12-2019 12:22 326 0 11,3 2,8 25,3
LYØ (MHV 904) OVLD 219000161 Lokal Støtte Element Varde 20-06-2019 00:05 307 Helgoland I. Environmental protection Esbjerg 30-12-2019 22:22 100 0 5,6 3,6 27,2
PACIFIC OSPREY 5BUF3 9621704 Swire Blue Ocean 07-04-2019 00:40 107 Rotterdam Demobilisation Limassol 31-12-2019 15:22 24586 13155 49,0 5,5 161,3
DI-JE (E 61) OWFZ 5128062 Partsrederiet E 61 Di-Je 03-02-2019 17:30 12 OTHER DENMARK Discharge Shrimps ESBJERG 31-12-2019 19:22 48 0 6,5 2,5 20,0
HEIMDAL OXQN2 9999999 KEM-Offshore ApS 10-10-2018 14:00 21 DK OFFSHORE INSTALLATIONS Passenger call Passengers ESBJERG 31-12-2019 07:22 19 10 5,0 1,5 16,1
MADOG V4DR 6615467 Malta Towage Limited 14-09-2018 14:00 89 Esbjerg Temporary laid up BASSETERRE - ST KITTS 31-12-2019 23:55 185 0 7,2 3,7 25,7
KURBERG OW2361 8600064 Thor P/F Ltd. 16-07-2018 18:35 88 Other ports, Færø Islands Temporary laid up Torshavn 31-12-2019 23:55 488 488 8,9 3,5 38,6
TORSVIK OZ2029 7807316 Thor P/F Ltd. 13-07-2018 09:30 88 Las Palmas Load Hosvik 31-12-2019 23:55 370 0 8,5 3,6 39,2
COLGA 9V9536 8751473 Dixstone Holding LtD 24-05-2018 06:22 78 OTHER DENMARK Repair Singapore 31-01-2020 23:59 9352 0 86,3 9,8 74,7
SALLING OUIG2 7431571 Salling Offshore-Service ApS 21-05-2018 18:55 59 OTHER DENMARK Crew change/Provion/Bunkers Esbjerg 31-12-2019 23:22 370 300 7,2 4,6 37,9